Terminal Aerodrome Forecast
Issued by NWS Norman, OK

Home | Current Version | Previous Version | Text Only | Print | Product List | Glossary On
Versions: 1 2 3 4 5 6 7 8 9 10 11 12 13
000
FTUS44 KOUN 031153
TAFSPS
TAF
KSPS 031153Z 0312/0412 05011KT 6SM -RA OVC040
     FM031400 06012KT 5SM -RA SCT009 OVC030
     FM031900 06012KT 5SM -RADZ OVC009
     FM040100 04006KT 4SM -DZ BR OVC007=

USA.gov is the U.S. government's official web portal to all federal, state and local government web resources and services.